createdAt,value
2022-10-03T06:36:49.965Z,19.20
2022-10-03T06:39:38.265Z,9.10
2022-10-03T06:42:42.011Z,8.90
2022-10-03T06:45:43.932Z,8.90
2022-10-03T06:48:27.884Z,9.00
2022-10-03T13:54:06.804Z,9.10
2022-10-03T14:51:37.826Z,21.90
2022-10-03T14:54:25.652Z,21.80
2022-10-03T14:56:54.168Z,20.80
2022-10-03T14:59:32.785Z,20.40
2022-10-03T15:09:39.995Z,20.60
2022-10-03T15:12:22.396Z,20.80
2022-10-03T15:15:07.203Z,20.40
2022-10-03T15:17:38.113Z,20.10
2022-10-03T15:20:07.633Z,19.40
2022-10-03T15:22:36.217Z,19.00
2022-10-03T15:25:17.745Z,19.10
2022-10-03T15:27:48.935Z,18.40
2022-10-03T15:30:31.528Z,17.50
2022-10-03T15:33:15.135Z,17.20
2022-10-03T15:35:46.869Z,17.40
2022-10-03T15:46:00.209Z,17.50
2022-10-03T15:48:30.380Z,17.10
2022-10-03T15:50:58.844Z,16.80
2022-10-03T15:53:36.419Z,16.80
2022-10-03T15:56:18.908Z,17.00
2022-10-03T15:58:51.893Z,17.00
2022-10-03T16:01:33.252Z,16.70
2022-10-03T16:04:03.088Z,16.20
2022-10-03T16:06:39.226Z,16.00
2022-10-03T16:09:25.688Z,15.60
2022-10-03T16:12:10.466Z,15.20
2022-10-03T16:15:17.131Z,15.00
2022-10-03T16:17:56.947Z,14.80
2022-10-03T16:20:37.618Z,14.60
2022-10-03T16:23:22.865Z,14.50
2022-10-03T16:25:56.737Z,14.30
2022-10-03T16:28:45.051Z,14.20
2022-10-03T16:31:26.508Z,14.00
2022-10-03T16:34:05.913Z,13.80
2022-10-03T16:36:47.400Z,13.60
2022-10-03T16:39:26.703Z,13.40
2022-10-03T16:41:55.349Z,13.30
2022-10-03T16:44:48.358Z,13.10
2022-10-03T16:47:16.853Z,12.90
2022-10-03T16:50:07.806Z,12.70
2022-10-03T16:52:37.844Z,12.50
2022-10-03T16:55:25.252Z,12.30
2022-10-03T16:58:12.858Z,12.20
2022-10-03T17:00:42.254Z,12.00
2022-10-03T17:03:19.153Z,11.90
2022-10-03T17:05:48.441Z,11.80
2022-10-03T17:08:40.764Z,11.70
2022-10-03T17:11:06.881Z,11.50
2022-10-03T17:13:45.360Z,11.40
2022-10-03T17:16:14.147Z,11.30
2022-10-03T17:18:44.533Z,11.20
2022-10-03T17:21:13.900Z,11.20
2022-10-03T17:23:49.701Z,11.30
2022-10-03T17:26:30.830Z,11.30
2022-10-03T17:29:09.485Z,11.20
2022-10-03T17:31:53.016Z,11.20
2022-10-03T17:34:42.849Z,11.00
2022-10-03T17:37:40.104Z,11.00
2022-10-03T17:40:34.034Z,10.70
2022-10-03T17:43:14.445Z,10.50
2022-10-03T17:45:41.644Z,10.30
2022-10-03T17:48:25.127Z,10.20
2022-10-03T17:51:16.694Z,10.10
2022-10-03T17:53:53.175Z,10.00
2022-10-03T17:56:24.144Z,9.90
2022-10-03T17:58:58.157Z,9.80
2022-10-03T18:01:36.166Z,9.70
2022-10-03T18:04:06.427Z,9.60
2022-10-03T18:06:51.995Z,9.50
2022-10-03T18:09:22.727Z,9.50
2022-10-03T18:11:50.639Z,9.40
2022-10-03T18:14:41.308Z,9.30
2022-10-03T18:17:25.254Z,9.30
2022-10-03T18:20:06.621Z,9.20
2022-10-03T18:22:43.277Z,9.20
2022-10-03T18:25:39.332Z,9.20
2022-10-03T18:28:16.098Z,9.20
2022-10-03T18:33:16.580Z,9.10
2022-10-03T18:35:46.566Z,8.90
2022-10-03T18:38:21.530Z,8.90
2022-10-03T18:41:00.280Z,8.80
2022-10-03T18:43:44.778Z,8.80
2022-10-03T18:46:16.396Z,8.70
2022-10-03T18:49:28.260Z,8.70
2022-10-03T18:51:53.162Z,8.70
2022-10-03T18:54:38.337Z,8.60
2022-10-03T18:57:25.539Z,8.60
2022-10-03T19:00:01.832Z,8.60
2022-10-03T19:02:31.447Z,8.50
2022-10-03T19:05:42.516Z,8.50
2022-10-03T19:08:35.041Z,8.40
2022-10-03T19:11:08.004Z,8.40
2022-10-03T19:13:56.050Z,8.30
2022-10-03T19:16:49.742Z,8.30
2022-10-03T19:19:42.908Z,8.30
2022-10-03T19:22:14.220Z,8.40
2022-10-03T19:24:57.834Z,8.30
2022-10-03T19:27:48.082Z,8.30
2022-10-03T19:30:20.503Z,8.30
2022-10-03T19:33:09.032Z,8.30
2022-10-03T19:35:39.599Z,8.30
2022-10-03T19:38:21.846Z,8.30
2022-10-03T19:41:07.172Z,8.30
2022-10-03T19:43:48.485Z,8.30
2022-10-03T19:46:15.142Z,8.20
2022-10-03T19:49:05.039Z,8.20
2022-10-03T19:51:31.852Z,8.30
2022-10-03T19:53:59.757Z,8.30
2022-10-03T19:56:31.228Z,8.30
2022-10-03T19:59:36.658Z,8.20
2022-10-03T20:02:06.714Z,8.20
2022-10-03T20:04:36.810Z,8.10
2022-10-03T20:07:17.761Z,8.10
2022-10-03T20:10:00.488Z,8.00
2022-10-03T20:12:30.643Z,8.00
2022-10-03T20:15:17.891Z,8.00
2022-10-03T20:17:45.746Z,8.00
2022-10-03T20:20:22.368Z,8.00
2022-10-03T20:22:49.753Z,7.90
2022-10-03T20:25:33.158Z,7.90
2022-10-03T20:28:05.387Z,7.90
2022-10-03T20:30:38.802Z,7.80
2022-10-03T20:33:07.280Z,7.80
2022-10-03T20:35:46.416Z,7.80
2022-10-03T20:38:40.489Z,7.70
2022-10-03T20:41:19.689Z,7.70
2022-10-03T20:43:58.442Z,7.70
2022-10-03T20:46:47.999Z,7.70
2022-10-03T20:49:30.504Z,7.60
2022-10-03T20:51:59.824Z,7.60
2022-10-03T20:54:35.913Z,7.50
2022-10-03T20:57:18.729Z,7.50
2022-10-03T21:00:11.430Z,7.60
2022-10-03T21:02:44.415Z,7.60
2022-10-03T21:05:21.949Z,7.50
2022-10-03T21:07:59.043Z,7.40
2022-10-03T21:10:32.300Z,7.40
2022-10-03T21:13:22.256Z,7.40
2022-10-03T21:15:53.672Z,7.40
2022-10-03T21:18:22.495Z,7.40
2022-10-03T21:20:59.335Z,7.30
2022-10-03T21:23:27.408Z,7.30
2022-10-03T21:25:58.597Z,7.30
2022-10-03T21:28:33.976Z,7.30
2022-10-03T21:31:13.879Z,7.30
2022-10-03T21:34:03.741Z,7.20
2022-10-03T21:37:03.347Z,7.20
2022-10-03T21:40:00.235Z,7.20
2022-10-03T21:42:37.260Z,7.10
2022-10-03T21:45:21.446Z,7.10
2022-10-03T21:47:50.455Z,7.10
2022-10-03T21:50:27.850Z,7.10
2022-10-03T21:53:01.793Z,7.10
2022-10-03T21:55:52.526Z,7.10
2022-10-03T21:58:28.032Z,7.10
2022-10-03T22:01:05.050Z,7.10
2022-10-03T22:03:53.918Z,7.00
2022-10-03T22:06:33.823Z,7.10
2022-10-03T22:09:11.289Z,7.00
2022-10-03T22:12:01.883Z,7.10
2022-10-03T22:14:43.791Z,7.00
2022-10-03T22:17:20.409Z,7.00
2022-10-03T22:19:52.610Z,7.00
2022-10-03T22:22:42.373Z,7.00
2022-10-03T22:25:29.569Z,7.00
2022-10-03T22:28:18.034Z,6.90
2022-10-03T22:31:15.491Z,6.90
2022-10-03T22:33:55.441Z,6.90
2022-10-03T22:36:22.738Z,6.90
2022-10-03T22:38:51.463Z,6.90
2022-10-03T22:41:25.518Z,6.90
2022-10-03T22:43:55.449Z,6.90
2022-10-03T22:46:26.461Z,7.00
2022-10-03T22:49:20.228Z,7.00
2022-10-03T22:51:48.924Z,7.00
2022-10-03T22:54:17.756Z,6.90
2022-10-03T22:56:46.940Z,6.90
2022-10-03T22:59:21.202Z,6.90
2022-10-03T23:01:51.156Z,6.90
2022-10-03T23:04:43.194Z,6.80
2022-10-03T23:07:09.724Z,6.80
2022-10-03T23:09:54.957Z,6.70
2022-10-03T23:12:24.526Z,6.60
2022-10-03T23:14:53.235Z,6.60
2022-10-03T23:17:57.579Z,6.50
2022-10-03T23:20:47.340Z,6.40
2022-10-03T23:23:32.476Z,6.30
2022-10-03T23:26:33.357Z,6.30
2022-10-03T23:29:10.840Z,6.20
2022-10-03T23:31:56.292Z,6.20
2022-10-03T23:34:37.832Z,6.20
2022-10-03T23:37:13.635Z,6.20
2022-10-03T23:39:55.316Z,6.10
2022-10-03T23:42:26.290Z,6.00
2022-10-03T23:44:57.047Z,6.00
2022-10-03T23:47:28.172Z,5.90
2022-10-03T23:49:55.744Z,5.90
2022-10-03T23:52:40.046Z,6.00
2022-10-03T23:55:08.217Z,5.90
2022-10-03T23:57:38.319Z,5.90
